Chicopee, Missouri
Current Conditions -  °F | °C
As of 9:53 AM on Sunday 23 Nov 2014 (Local Time) from KPOF Reporting Station
Light Rain Light Rain  
Wind Chill: 55°   Ceiling: 900
Heat Index: 55°   Visibility: 5mi
Dew Point: 52°   Wind: 6mph
Humidity: 89%   Direction: 120°ESE
Pressure: 29.64"   Gusts: NA
Location:  36.9608°N, 90.9923°W
Report Text: KPOF 231553Z AUTO 12005KT 5SM -RA BR OVC009 13/11 A2964 RMK AO2 SLP038 P0003 T01280111
Loading
Personal Weather Stations






























Interactive Weather Map New forecast layout! Learn more

10-Day Weather Forecast

Advertisements
Track Severe Weather on mobile